sensor_id;sensor_type;location;lat;lon;timestamp;temperature;humidity
41060;DHT22;26811;53.160;8.202;2023-04-03T00:04:57;1.20;99.90
41060;DHT22;26811;53.160;8.202;2023-04-03T00:09:58;1.20;99.90
41060;DHT22;26811;53.160;8.202;2023-04-03T00:14:58;1.10;99.90
41060;DHT22;26811;53.160;8.202;2023-04-03T00:19:59;1.10;99.90
41060;DHT22;26811;53.160;8.202;2023-04-03T00:24:59;1.00;99.90
41060;DHT22;26811;53.160;8.202;2023-04-03T00:30:00;1.00;99.90
41060;DHT22;26811;53.160;8.202;2023-04-03T00:35:00;1.00;99.90
41060;DHT22;26811;53.160;8.202;2023-04-03T00:40:01;0.90;99.90
41060;DHT22;26811;53.160;8.202;2023-04-03T00:50:03;0.80;99.90
41060;DHT22;26811;53.160;8.202;2023-04-03T00:55:06;0.70;99.90
41060;DHT22;26811;53.160;8.202;2023-04-03T01:00:09;0.70;99.90
41060;DHT22;26811;53.160;8.202;2023-04-03T01:05:10;0.70;99.90
41060;DHT22;26811;53.160;8.202;2023-04-03T01:10:14;0.60;99.90
41060;DHT22;26811;53.160;8.202;2023-04-03T01:15:19;0.50;99.90
41060;DHT22;26811;53.160;8.202;2023-04-03T01:25:38;0.40;99.90
41060;DHT22;26811;53.160;8.202;2023-04-03T01:35:55;0.40;99.90
41060;DHT22;26811;53.160;8.202;2023-04-03T01:40:55;0.50;99.90
41060;DHT22;26811;53.160;8.202;2023-04-03T01:45:56;0.50;99.90
41060;DHT22;26811;53.160;8.202;2023-04-03T01:50:56;0.40;99.90
41060;DHT22;26811;53.160;8.202;2023-04-03T01:55:57;0.40;99.90
41060;DHT22;26811;53.160;8.202;2023-04-03T02:00:57;0.40;99.90
41060;DHT22;26811;53.160;8.202;2023-04-03T02:05:59;0.40;99.90
41060;DHT22;26811;53.160;8.202;2023-04-03T02:10:59;0.40;99.90
41060;DHT22;26811;53.160;8.202;2023-04-03T02:16:06;0.30;99.90
41060;DHT22;26811;53.160;8.202;2023-04-03T02:21:07;0.30;99.90
41060;DHT22;26811;53.160;8.202;2023-04-03T02:26:10;0.30;99.90
41060;DHT22;26811;53.160;8.202;2023-04-03T02:31:11;0.30;99.90
41060;DHT22;26811;53.160;8.202;2023-04-03T02:36:12;0.30;99.90
41060;DHT22;26811;53.160;8.202;2023-04-03T02:41:12;0.20;99.90
41060;DHT22;26811;53.160;8.202;2023-04-03T02:46:13;0.20;99.90
41060;DHT22;26811;53.160;8.202;2023-04-03T02:51:15;0.20;99.90
41060;DHT22;26811;53.160;8.202;2023-04-03T02:56:17;0.20;99.90
41060;DHT22;26811;53.160;8.202;2023-04-03T03:01:18;0.10;99.90
41060;DHT22;26811;53.160;8.202;2023-04-03T03:06:19;0.10;99.90
41060;DHT22;26811;53.160;8.202;2023-04-03T03:11:19;0.00;99.90
41060;DHT22;26811;53.160;8.202;2023-04-03T03:16:20;0.00;99.90
41060;DHT22;26811;53.160;8.202;2023-04-03T03:21:20;0.00;99.90
41060;DHT22;26811;53.160;8.202;2023-04-03T03:26:21;0.00;99.90
41060;DHT22;26811;53.160;8.202;2023-04-03T03:31:22;0.00;99.90
41060;DHT22;26811;53.160;8.202;2023-04-03T03:36:22;-0.10;99.90
41060;DHT22;26811;53.160;8.202;2023-04-03T03:41:23;-0.10;99.90
41060;DHT22;26811;53.160;8.202;2023-04-03T03:46:23;-0.20;99.90
41060;DHT22;26811;53.160;8.202;2023-04-03T03:51:24;-0.20;99.90
41060;DHT22;26811;53.160;8.202;2023-04-03T03:56:25;-0.10;99.90
41060;DHT22;26811;53.160;8.202;2023-04-03T04:01:25;-0.20;99.90
41060;DHT22;26811;53.160;8.202;2023-04-03T04:06:26;-0.20;99.90
41060;DHT22;26811;53.160;8.202;2023-04-03T04:11:27;-0.20;99.90
41060;DHT22;26811;53.160;8.202;2023-04-03T04:16:28;-0.20;99.90
41060;DHT22;26811;53.160;8.202;2023-04-03T04:21:28;-0.30;99.90
41060;DHT22;26811;53.160;8.202;2023-04-03T04:26:29;-0.30;99.90
41060;DHT22;26811;53.160;8.202;2023-04-03T04:31:29;-0.40;99.90
41060;DHT22;26811;53.160;8.202;2023-04-03T04:36:30;-0.40;99.90
41060;DHT22;26811;53.160;8.202;2023-04-03T04:41:31;-0.40;99.90
41060;DHT22;26811;53.160;8.202;2023-04-03T04:46:31;-0.40;99.90
41060;DHT22;26811;53.160;8.202;2023-04-03T04:51:32;-0.40;99.90
41060;DHT22;26811;53.160;8.202;2023-04-03T04:56:32;-0.40;99.90
41060;DHT22;26811;53.160;8.202;2023-04-03T05:01:33;-0.40;99.90
41060;DHT22;26811;53.160;8.202;2023-04-03T05:06:33;-0.40;99.90
41060;DHT22;26811;53.160;8.202;2023-04-03T05:11:35;-0.40;99.90
41060;DHT22;26811;53.160;8.202;2023-04-03T05:16:36;-0.30;99.90
41060;DHT22;26811;53.160;8.202;2023-04-03T05:21:36;-0.20;99.90
41060;DHT22;26811;53.160;8.202;2023-04-03T05:26:37;-0.20;99.90
41060;DHT22;26811;53.160;8.202;2023-04-03T05:31:38;-0.10;99.90
41060;DHT22;26811;53.160;8.202;2023-04-03T05:36:39;-0.10;99.90
41060;DHT22;26811;53.160;8.202;2023-04-03T05:41:39;0.00;99.90
41060;DHT22;26811;53.160;8.202;2023-04-03T05:46:40;0.10;99.90
41060;DHT22;26811;53.160;8.202;2023-04-03T05:51:41;0.20;99.90
41060;DHT22;26811;53.160;8.202;2023-04-03T05:56:42;0.30;99.90
41060;DHT22;26811;53.160;8.202;2023-04-03T06:01:43;0.50;99.90
41060;DHT22;26811;53.160;8.202;2023-04-03T06:06:53;0.60;99.90
41060;DHT22;26811;53.160;8.202;2023-04-03T06:11:53;0.80;99.90
41060;DHT22;26811;53.160;8.202;2023-04-03T06:16:55;1.00;99.90
41060;DHT22;26811;53.160;8.202;2023-04-03T06:21:56;1.10;99.90
41060;DHT22;26811;53.160;8.202;2023-04-03T06:26:57;1.30;99.90
41060;DHT22;26811;53.160;8.202;2023-04-03T06:31:58;1.50;99.90
41060;DHT22;26811;53.160;8.202;2023-04-03T06:36:58;1.70;99.90
41060;DHT22;26811;53.160;8.202;2023-04-03T06:41:59;2.30;99.90
41060;DHT22;26811;53.160;8.202;2023-04-03T06:47:01;3.10;99.90
41060;DHT22;26811;53.160;8.202;2023-04-03T06:52:01;4.40;99.90
41060;DHT22;26811;53.160;8.202;2023-04-03T06:57:02;6.30;99.90
41060;DHT22;26811;53.160;8.202;2023-04-03T07:02:03;8.20;99.90
41060;DHT22;26811;53.160;8.202;2023-04-03T07:07:04;10.50;96.90
41060;DHT22;26811;53.160;8.202;2023-04-03T07:12:05;12.70;94.20
41060;DHT22;26811;53.160;8.202;2023-04-03T07:17:06;13.90;90.40
41060;DHT22;26811;53.160;8.202;2023-04-03T07:22:07;14.70;86.50
41060;DHT22;26811;53.160;8.202;2023-04-03T07:27:08;15.60;82.80
41060;DHT22;26811;53.160;8.202;2023-04-03T07:32:08;16.20;77.20
41060;DHT22;26811;53.160;8.202;2023-04-03T07:37:09;15.70;77.10
41060;DHT22;26811;53.160;8.202;2023-04-03T07:42:10;16.30;76.80
41060;DHT22;26811;53.160;8.202;2023-04-03T07:47:12;16.10;75.00
41060;DHT22;26811;53.160;8.202;2023-04-03T07:52:14;15.40;75.40
41060;DHT22;26811;53.160;8.202;2023-04-03T07:57:15;15.50;77.40
41060;DHT22;26811;53.160;8.202;2023-04-03T08:02:16;15.30;75.30
41060;DHT22;26811;53.160;8.202;2023-04-03T08:07:17;14.30;77.70
41060;DHT22;26811;53.160;8.202;2023-04-03T08:12:18;14.30;76.20
41060;DHT22;26811;53.160;8.202;2023-04-03T08:17:18;14.50;76.70
41060;DHT22;26811;53.160;8.202;2023-04-03T08:22:19;14.00;75.30
41060;DHT22;26811;53.160;8.202;2023-04-03T08:27:20;13.20;77.70
41060;DHT22;26811;53.160;8.202;2023-04-03T08:32:20;13.60;79.60
41060;DHT22;26811;53.160;8.202;2023-04-03T08:37:21;14.80;77.80
41060;DHT22;26811;53.160;8.202;2023-04-03T08:48:14;14.00;75.40
41060;DHT22;26811;53.160;8.202;2023-04-03T08:53:19;14.30;76.10
41060;DHT22;26811;53.160;8.202;2023-04-03T08:58:28;13.50;73.80
41060;DHT22;26811;53.160;8.202;2023-04-03T09:03:32;13.00;76.90
41060;DHT22;26811;53.160;8.202;2023-04-03T09:08:51;12.60;68.50
41060;DHT22;26811;53.160;8.202;2023-04-03T09:24:31;13.30;72.60
41060;DHT22;26811;53.160;8.202;2023-04-03T09:29:36;13.40;71.00
41060;DHT22;26811;53.160;8.202;2023-04-03T09:34:41;12.70;68.80
41060;DHT22;26811;53.160;8.202;2023-04-03T09:39:53;12.30;70.80
41060;DHT22;26811;53.160;8.202;2023-04-03T09:44:59;12.40;71.10
41060;DHT22;26811;53.160;8.202;2023-04-03T09:55:17;11.50;66.90
41060;DHT22;26811;53.160;8.202;2023-04-03T10:00:23;11.30;74.00
41060;DHT22;26811;53.160;8.202;2023-04-03T10:05:34;10.70;66.90
41060;DHT22;26811;53.160;8.202;2023-04-03T10:10:36;10.30;70.80
41060;DHT22;26811;53.160;8.202;2023-04-03T10:15:44;10.50;74.40
41060;DHT22;26811;53.160;8.202;2023-04-03T10:20:48;10.60;67.80
41060;DHT22;26811;53.160;8.202;2023-04-03T10:31:29;10.50;68.70
41060;DHT22;26811;53.160;8.202;2023-04-03T10:36:53;10.40;68.70
41060;DHT22;26811;53.160;8.202;2023-04-03T10:42:09;10.20;69.10
41060;DHT22;26811;53.160;8.202;2023-04-03T10:52:42;10.80;72.20
41060;DHT22;26811;53.160;8.202;2023-04-03T10:57:44;10.90;73.40
41060;DHT22;26811;53.160;8.202;2023-04-03T11:02:51;10.60;71.70
41060;DHT22;26811;53.160;8.202;2023-04-03T11:07:53;10.80;73.50
41060;DHT22;26811;53.160;8.202;2023-04-03T11:13:15;11.20;76.30
41060;DHT22;26811;53.160;8.202;2023-04-03T11:18:21;11.30;73.00
41060;DHT22;26811;53.160;8.202;2023-04-03T11:23:26;11.40;70.80
41060;DHT22;26811;53.160;8.202;2023-04-03T11:28:27;11.20;69.30
41060;DHT22;26811;53.160;8.202;2023-04-03T11:33:53;11.00;67.20
41060;DHT22;26811;53.160;8.202;2023-04-03T11:38:59;10.80;69.40
41060;DHT22;26811;53.160;8.202;2023-04-03T11:44:13;10.40;70.50
41060;DHT22;26811;53.160;8.202;2023-04-03T11:50:01;10.60;71.80
41060;DHT22;26811;53.160;8.202;2023-04-03T11:55:09;10.80;69.00
41060;DHT22;26811;53.160;8.202;2023-04-03T12:16:42;11.20;71.00
41060;DHT22;26811;53.160;8.202;2023-04-03T12:32:21;11.10;71.20
41060;DHT22;26811;53.160;8.202;2023-04-03T12:48:48;11.30;70.20
41060;DHT22;26811;53.160;8.202;2023-04-03T12:53:52;11.10;72.10
41060;DHT22;26811;53.160;8.202;2023-04-03T13:04:14;10.90;73.10
41060;DHT22;26811;53.160;8.202;2023-04-03T13:09:24;11.00;72.80
41060;DHT22;26811;53.160;8.202;2023-04-03T13:14:27;11.10;73.70
41060;DHT22;26811;53.160;8.202;2023-04-03T13:19:29;11.10;74.00
41060;DHT22;26811;53.160;8.202;2023-04-03T13:24:33;11.10;71.80
41060;DHT22;26811;53.160;8.202;2023-04-03T13:29:37;11.10;69.30
41060;DHT22;26811;53.160;8.202;2023-04-03T13:34:42;10.50;69.80
41060;DHT22;26811;53.160;8.202;2023-04-03T13:39:43;10.30;74.20
41060;DHT22;26811;53.160;8.202;2023-04-03T13:44:43;10.50;73.50
41060;DHT22;26811;53.160;8.202;2023-04-03T13:49:58;10.90;74.40
41060;DHT22;26811;53.160;8.202;2023-04-03T13:55:03;11.20;73.30
41060;DHT22;26811;53.160;8.202;2023-04-03T14:00:48;11.40;72.90
41060;DHT22;26811;53.160;8.202;2023-04-03T14:05:50;11.30;69.20
41060;DHT22;26811;53.160;8.202;2023-04-03T14:10:51;11.30;74.70
41060;DHT22;26811;53.160;8.202;2023-04-03T14:15:52;11.20;75.30
41060;DHT22;26811;53.160;8.202;2023-04-03T14:20:52;11.40;76.20
41060;DHT22;26811;53.160;8.202;2023-04-03T14:25:53;11.30;75.00
41060;DHT22;26811;53.160;8.202;2023-04-03T14:30:55;10.90;73.80
41060;DHT22;26811;53.160;8.202;2023-04-03T14:35:55;10.80;73.40
41060;DHT22;26811;53.160;8.202;2023-04-03T14:40:57;10.90;78.20
41060;DHT22;26811;53.160;8.202;2023-04-03T14:45:58;11.60;79.50
41060;DHT22;26811;53.160;8.202;2023-04-03T14:50:58;11.80;75.60
41060;DHT22;26811;53.160;8.202;2023-04-03T14:55:59;11.20;76.90
41060;DHT22;26811;53.160;8.202;2023-04-03T15:00:59;10.50;80.60
41060;DHT22;26811;53.160;8.202;2023-04-03T15:06:00;10.10;82.40
41060;DHT22;26811;53.160;8.202;2023-04-03T15:11:01;10.30;83.30
41060;DHT22;26811;53.160;8.202;2023-04-03T15:16:01;10.50;81.40
41060;DHT22;26811;53.160;8.202;2023-04-03T15:21:04;10.60;81.20
41060;DHT22;26811;53.160;8.202;2023-04-03T15:26:05;10.30;82.30
41060;DHT22;26811;53.160;8.202;2023-04-03T15:31:06;10.00;82.90
41060;DHT22;26811;53.160;8.202;2023-04-03T15:36:07;9.70;85.20
41060;DHT22;26811;53.160;8.202;2023-04-03T15:41:08;9.60;84.40
41060;DHT22;26811;53.160;8.202;2023-04-03T15:46:08;9.40;86.40
41060;DHT22;26811;53.160;8.202;2023-04-03T15:51:09;9.30;86.30
41060;DHT22;26811;53.160;8.202;2023-04-03T15:56:09;9.30;88.30
41060;DHT22;26811;53.160;8.202;2023-04-03T16:01:12;9.20;89.10
41060;DHT22;26811;53.160;8.202;2023-04-03T16:06:16;9.20;90.20
41060;DHT22;26811;53.160;8.202;2023-04-03T16:11:18;9.10;90.90
41060;DHT22;26811;53.160;8.202;2023-04-03T16:16:19;8.90;91.50
41060;DHT22;26811;53.160;8.202;2023-04-03T16:21:20;8.60;92.40
41060;DHT22;26811;53.160;8.202;2023-04-03T16:26:21;8.40;93.60
41060;DHT22;26811;53.160;8.202;2023-04-03T16:31:22;8.30;94.30
41060;DHT22;26811;53.160;8.202;2023-04-03T16:36:25;8.10;95.30
41060;DHT22;26811;53.160;8.202;2023-04-03T16:41:26;8.00;96.70
41060;DHT22;26811;53.160;8.202;2023-04-03T16:46:26;7.90;98.20
41060;DHT22;26811;53.160;8.202;2023-04-03T16:51:27;7.80;99.40
41060;DHT22;26811;53.160;8.202;2023-04-03T16:56:27;7.70;99.90
41060;DHT22;26811;53.160;8.202;2023-04-03T17:01:28;7.60;99.90
41060;DHT22;26811;53.160;8.202;2023-04-03T17:06:29;7.50;99.90
41060;DHT22;26811;53.160;8.202;2023-04-03T17:11:30;7.40;99.90
41060;DHT22;26811;53.160;8.202;2023-04-03T17:16:35;7.20;99.90
41060;DHT22;26811;53.160;8.202;2023-04-03T17:21:37;7.20;99.90
41060;DHT22;26811;53.160;8.202;2023-04-03T17:26:38;7.10;99.90
41060;DHT22;26811;53.160;8.202;2023-04-03T17:31:39;6.90;99.90
41060;DHT22;26811;53.160;8.202;2023-04-03T17:36:40;6.70;99.90
41060;DHT22;26811;53.160;8.202;2023-04-03T17:41:41;6.70;99.90
41060;DHT22;26811;53.160;8.202;2023-04-03T17:46:42;6.50;99.90
41060;DHT22;26811;53.160;8.202;2023-04-03T17:51:42;6.30;99.90
41060;DHT22;26811;53.160;8.202;2023-04-03T17:56:43;6.20;99.90
41060;DHT22;26811;53.160;8.202;2023-04-03T18:01:47;6.10;99.90
41060;DHT22;26811;53.160;8.202;2023-04-03T18:06:50;5.90;99.90
41060;DHT22;26811;53.160;8.202;2023-04-03T18:11:51;5.80;99.90
41060;DHT22;26811;53.160;8.202;2023-04-03T18:16:53;5.70;99.90
41060;DHT22;26811;53.160;8.202;2023-04-03T18:22:00;5.60;99.90
41060;DHT22;26811;53.160;8.202;2023-04-03T18:27:09;5.50;99.90
41060;DHT22;26811;53.160;8.202;2023-04-03T18:32:13;5.30;99.90
41060;DHT22;26811;53.160;8.202;2023-04-03T18:37:14;5.20;99.90
41060;DHT22;26811;53.160;8.202;2023-04-03T18:42:18;5.20;99.90
41060;DHT22;26811;53.160;8.202;2023-04-03T18:47:19;5.00;99.90
41060;DHT22;26811;53.160;8.202;2023-04-03T18:52:20;4.90;99.90
41060;DHT22;26811;53.160;8.202;2023-04-03T18:57:21;4.90;99.90
41060;DHT22;26811;53.160;8.202;2023-04-03T19:02:21;4.80;99.90
41060;DHT22;26811;53.160;8.202;2023-04-03T19:07:25;4.70;99.90
41060;DHT22;26811;53.160;8.202;2023-04-03T19:12:25;4.60;99.90
41060;DHT22;26811;53.160;8.202;2023-04-03T19:17:26;4.50;99.90
41060;DHT22;26811;53.160;8.202;2023-04-03T19:22:27;4.40;99.90
41060;DHT22;26811;53.160;8.202;2023-04-03T19:27:30;4.40;99.90
41060;DHT22;26811;53.160;8.202;2023-04-03T19:32:30;4.30;99.90
41060;DHT22;26811;53.160;8.202;2023-04-03T19:37:31;4.30;99.90
41060;DHT22;26811;53.160;8.202;2023-04-03T19:42:31;4.20;99.90
41060;DHT22;26811;53.160;8.202;2023-04-03T19:47:33;4.20;99.90
41060;DHT22;26811;53.160;8.202;2023-04-03T19:52:34;4.10;99.90
41060;DHT22;26811;53.160;8.202;2023-04-03T19:57:35;4.10;99.90
41060;DHT22;26811;53.160;8.202;2023-04-03T20:02:35;4.00;99.90
41060;DHT22;26811;53.160;8.202;2023-04-03T20:07:36;3.90;99.90
41060;DHT22;26811;53.160;8.202;2023-04-03T20:12:37;3.80;99.90
41060;DHT22;26811;53.160;8.202;2023-04-03T20:17:38;3.70;99.90
41060;DHT22;26811;53.160;8.202;2023-04-03T20:22:39;3.60;99.90
41060;DHT22;26811;53.160;8.202;2023-04-03T20:27:40;3.60;99.90
41060;DHT22;26811;53.160;8.202;2023-04-03T20:32:40;3.50;99.90
41060;DHT22;26811;53.160;8.202;2023-04-03T20:37:41;3.40;99.90
41060;DHT22;26811;53.160;8.202;2023-04-03T20:42:42;3.40;99.90
41060;DHT22;26811;53.160;8.202;2023-04-03T20:47:42;3.40;99.90
41060;DHT22;26811;53.160;8.202;2023-04-03T20:52:43;3.30;99.90
41060;DHT22;26811;53.160;8.202;2023-04-03T20:57:44;3.30;99.90
41060;DHT22;26811;53.160;8.202;2023-04-03T21:02:45;3.30;99.90
41060;DHT22;26811;53.160;8.202;2023-04-03T21:19:18;3.10;99.90
41060;DHT22;26811;53.160;8.202;2023-04-03T21:24:20;3.10;99.90
41060;DHT22;26811;53.160;8.202;2023-04-03T21:29:21;3.00;99.90
41060;DHT22;26811;53.160;8.202;2023-04-03T21:34:25;3.00;99.90
41060;DHT22;26811;53.160;8.202;2023-04-03T21:39:29;2.90;99.90
41060;DHT22;26811;53.160;8.202;2023-04-03T21:44:30;2.90;99.90
41060;DHT22;26811;53.160;8.202;2023-04-03T21:49:31;2.80;99.90
41060;DHT22;26811;53.160;8.202;2023-04-03T21:54:32;2.70;99.90
41060;DHT22;26811;53.160;8.202;2023-04-03T21:59:33;2.70;99.90
41060;DHT22;26811;53.160;8.202;2023-04-03T22:04:34;2.50;99.90
41060;DHT22;26811;53.160;8.202;2023-04-03T22:09:34;2.40;99.90
41060;DHT22;26811;53.160;8.202;2023-04-03T22:14:35;2.40;99.90
41060;DHT22;26811;53.160;8.202;2023-04-03T22:19:35;2.30;99.90
41060;DHT22;26811;53.160;8.202;2023-04-03T22:24:36;2.30;99.90
41060;DHT22;26811;53.160;8.202;2023-04-03T22:29:36;2.30;99.90
41060;DHT22;26811;53.160;8.202;2023-04-03T22:34:37;2.20;99.90
41060;DHT22;26811;53.160;8.202;2023-04-03T22:39:38;2.10;99.90
41060;DHT22;26811;53.160;8.202;2023-04-03T22:44:39;2.10;99.90
41060;DHT22;26811;53.160;8.202;2023-04-03T22:49:39;2.10;99.90
41060;DHT22;26811;53.160;8.202;2023-04-03T22:54:40;2.00;99.90
41060;DHT22;26811;53.160;8.202;2023-04-03T22:59:42;1.90;99.90
41060;DHT22;26811;53.160;8.202;2023-04-03T23:04:42;1.90;99.90
41060;DHT22;26811;53.160;8.202;2023-04-03T23:09:43;1.90;99.90
41060;DHT22;26811;53.160;8.202;2023-04-03T23:14:44;1.80;99.90
41060;DHT22;26811;53.160;8.202;2023-04-03T23:19:44;1.80;99.90
41060;DHT22;26811;53.160;8.202;2023-04-03T23:24:45;1.70;99.90
41060;DHT22;26811;53.160;8.202;2023-04-03T23:29:45;1.70;99.90
41060;DHT22;26811;53.160;8.202;2023-04-03T23:34:46;1.60;99.90
41060;DHT22;26811;53.160;8.202;2023-04-03T23:39:47;1.60;99.90
41060;DHT22;26811;53.160;8.202;2023-04-03T23:44:47;1.60;99.90
41060;DHT22;26811;53.160;8.202;2023-04-03T23:49:48;1.50;99.90
41060;DHT22;26811;53.160;8.202;2023-04-03T23:54:48;1.50;99.90
41060;DHT22;26811;53.160;8.202;2023-04-03T23:59:49;1.40;99.90
